Terminal Aerodrome Forecast
Issued by NWS

Home | Current Version | Previous Version | Text Only | Print | Product List | Glossary On
Versions: 1 2 3 4 5 6 7 8 9 10 11 12 13 14 15 16 17 18
000
FTUS46 KMTR 182300
TAFSTS
TAF
KSTS 182321Z 1900/1924 18008KT P6SM SKC
     FM190400 VRB03KT P6SM FEW010
     FM190700 00000KT 5SM BR OVC004
     FM191700 VRB03KT P6SM SCT008
     FM192000 18007KT P6SM FEW040=

USA.gov is the U.S. government's official web portal to all federal, state and local government web resources and services.